createdAt,value
2023-05-15T00:00:45.291Z,65.92
2023-05-15T00:01:46.010Z,66.83
2023-05-15T00:02:46.076Z,67.45
2023-05-15T00:03:44.791Z,65.92
2023-05-15T00:04:45.986Z,65.71
2023-05-15T00:05:45.929Z,65.92
2023-05-15T00:06:45.920Z,66.74
2023-05-15T00:07:45.908Z,66.42
2023-05-15T00:08:45.882Z,66.83
2023-05-15T00:09:45.870Z,66.53
2023-05-15T00:10:57.369Z,66.94
2023-05-15T00:11:46.844Z,66.74
2023-05-15T00:12:45.836Z,66.63
2023-05-15T00:13:45.824Z,66.94
2023-05-15T00:14:45.809Z,67.76
2023-05-15T00:15:45.803Z,66.33
2023-05-15T00:16:45.780Z,66.42
2023-05-15T00:17:45.812Z,67.04
2023-05-15T00:18:45.828Z,67.76
2023-05-15T00:19:45.725Z,67.96
2023-05-15T00:20:45.710Z,67.76
2023-05-15T00:21:45.716Z,67.96
2023-05-15T00:22:45.699Z,68.57
2023-05-15T00:23:45.677Z,69.08
2023-05-15T00:24:45.675Z,70.31
2023-05-15T00:25:45.646Z,71.53
2023-05-15T00:26:45.650Z,72.24
2023-05-15T00:27:44.165Z,72.45
2023-05-15T00:28:45.626Z,71.84
2023-05-15T00:29:45.582Z,71.02
2023-05-15T00:30:45.611Z,70.81
2023-05-15T00:31:45.633Z,70.81
2023-05-15T00:32:45.620Z,70.40
2023-05-15T00:33:45.538Z,69.08
2023-05-15T00:34:45.529Z,68.67
2023-05-15T00:35:44.299Z,69.38
2023-05-15T00:36:45.511Z,69.90
2023-05-15T00:37:45.492Z,72.04
2023-05-15T00:38:45.473Z,71.73
2023-05-15T00:39:45.460Z,70.61
2023-05-15T00:40:44.014Z,69.93
2023-05-15T00:41:45.448Z,69.42
2023-05-15T00:42:45.414Z,70.14
2023-05-15T00:43:43.953Z,69.21
2023-05-15T00:44:45.395Z,68.30
2023-05-15T00:45:45.382Z,68.09
2023-05-15T00:46:45.392Z,68.09
2023-05-15T00:47:45.371Z,67.48
2023-05-15T00:48:44.068Z,66.77
2023-05-15T00:49:43.976Z,66.66
2023-05-15T00:50:45.313Z,67.07
2023-05-15T00:51:45.314Z,66.66
2023-05-15T00:52:45.290Z,65.34
2023-05-15T00:53:44.013Z,64.72
2023-05-15T00:54:45.268Z,64.62
2023-05-15T00:55:45.277Z,64.22
2023-05-15T00:56:45.236Z,64.11
2023-05-15T00:57:45.224Z,64.22
2023-05-15T00:58:45.204Z,62.88
2023-05-15T00:59:45.202Z,63.12
2023-05-15T01:00:45.270Z,61.08
2023-05-15T01:01:45.179Z,60.36
2023-05-15T01:02:45.205Z,60.46
2023-05-15T01:03:45.144Z,60.77
2023-05-15T01:04:45.145Z,61.49
2023-05-15T01:05:45.129Z,60.26
2023-05-15T01:06:45.123Z,60.36
2023-05-15T01:07:43.884Z,60.05
2023-05-15T01:08:45.080Z,60.26
2023-05-15T01:09:45.098Z,60.87
2023-05-15T01:10:45.044Z,61.49
2023-05-15T01:11:45.027Z,62.10
2023-05-15T01:12:45.016Z,62.30
2023-05-15T01:13:45.043Z,61.28
2023-05-15T01:14:44.508Z,58.52
2023-05-15T01:15:44.954Z,58.11
2023-05-15T01:16:44.960Z,58.22
2023-05-15T01:17:44.999Z,58.01
2023-05-15T01:18:44.170Z,57.91
2023-05-15T01:19:45.070Z,58.11
2023-05-15T01:20:44.900Z,58.11
2023-05-15T01:21:44.896Z,58.32
2023-05-15T01:22:44.868Z,58.22
2023-05-15T01:23:44.870Z,58.11
2023-05-15T01:24:44.862Z,58.45
2023-05-15T01:25:44.827Z,57.84
2023-05-15T01:26:44.827Z,57.93
2023-05-15T01:27:44.827Z,56.61
2023-05-15T01:28:44.796Z,57.12
2023-05-15T01:29:44.788Z,57.22
2023-05-15T01:30:44.799Z,56.23
2023-05-15T01:31:44.767Z,55.82
2023-05-15T01:32:44.832Z,55.62
2023-05-15T01:33:44.754Z,55.00
2023-05-15T01:34:44.730Z,54.08
2023-05-15T01:35:44.690Z,54.08
2023-05-15T01:36:44.673Z,54.59
2023-05-15T01:37:44.668Z,54.00
2023-05-15T01:38:44.682Z,54.10
2023-05-15T01:39:44.644Z,54.41
2023-05-15T01:40:44.625Z,54.82
2023-05-15T01:41:44.609Z,54.82
2023-05-15T01:42:44.616Z,54.41
2023-05-15T01:43:44.579Z,53.39
2023-05-15T01:44:44.586Z,52.78
2023-05-15T01:45:44.558Z,52.06
2023-05-15T01:46:44.642Z,51.04
2023-05-15T01:47:44.597Z,50.12
2023-05-15T01:48:44.517Z,49.81
2023-05-15T01:49:44.504Z,50.22
2023-05-15T01:50:44.494Z,49.52
2023-05-15T01:51:44.505Z,49.63
2023-05-15T01:52:44.485Z,49.63
2023-05-15T01:53:44.293Z,49.52
2023-05-15T01:54:44.438Z,49.42
2023-05-15T01:55:44.429Z,50.14
2023-05-15T01:56:44.404Z,50.85
2023-05-15T01:57:44.401Z,50.75
2023-05-15T01:58:44.378Z,51.98
2023-05-15T01:59:44.384Z,52.90
2023-05-15T02:00:44.375Z,52.70
2023-05-15T02:01:44.419Z,50.75
2023-05-15T02:02:44.430Z,50.65
2023-05-15T02:03:43.489Z,51.16
2023-05-15T02:04:43.816Z,51.16
2023-05-15T02:05:44.297Z,50.65
2023-05-15T02:06:44.296Z,49.11
2023-05-15T02:07:44.256Z,50.04
2023-05-15T02:08:44.267Z,49.63
2023-05-15T02:09:44.247Z,50.45
2023-05-15T02:10:44.251Z,47.89
2023-05-15T02:11:44.206Z,48.40
2023-05-15T02:12:44.178Z,48.50
2023-05-15T02:13:44.174Z,49.52
2023-05-15T02:14:44.182Z,50.24
2023-05-15T02:15:44.149Z,50.04
2023-05-15T02:16:43.371Z,49.63
2023-05-15T02:17:44.151Z,49.63
2023-05-15T02:18:44.142Z,50.04
2023-05-15T02:19:44.115Z,50.24
2023-05-15T02:20:44.093Z,48.60
2023-05-15T02:21:44.097Z,49.11
2023-05-15T02:22:44.095Z,49.63
2023-05-15T02:23:44.077Z,50.04
2023-05-15T02:24:44.063Z,50.12
2023-05-15T02:25:44.065Z,50.93
2023-05-15T02:26:44.035Z,51.04
2023-05-15T02:27:44.026Z,51.54
2023-05-15T02:28:44.002Z,52.06
2023-05-15T02:29:44.005Z,52.08
2023-05-15T02:30:43.999Z,51.88
2023-05-15T02:31:42.539Z,52.19
2023-05-15T02:32:43.982Z,52.49
2023-05-15T02:33:43.942Z,52.90
2023-05-15T02:34:43.910Z,52.80
2023-05-15T02:35:43.894Z,51.88
2023-05-15T02:36:43.863Z,51.78
2023-05-15T02:37:43.932Z,51.65
2023-05-15T02:38:43.924Z,51.65
2023-05-15T02:39:43.827Z,52.08
2023-05-15T02:40:43.820Z,51.37
2023-05-15T02:41:43.805Z,51.67
2023-05-15T02:42:43.787Z,51.88
2023-05-15T02:43:43.786Z,51.98
2023-05-15T02:44:43.773Z,52.59
2023-05-15T02:45:43.762Z,51.47
2023-05-15T02:46:43.725Z,52.59
2023-05-15T02:47:43.753Z,53.11
2023-05-15T02:48:43.740Z,51.98
2023-05-15T02:49:43.712Z,51.98
2023-05-15T02:50:43.698Z,52.49
2023-05-15T02:51:43.712Z,52.49
2023-05-15T02:52:43.653Z,51.37
2023-05-15T02:53:43.653Z,50.96
2023-05-15T02:54:43.625Z,50.24
2023-05-15T02:55:43.610Z,50.04
2023-05-15T02:56:43.594Z,48.91
2023-05-15T02:57:43.581Z,49.52
2023-05-15T02:58:43.592Z,50.04
2023-05-15T02:59:43.569Z,49.01
2023-05-15T03:00:43.547Z,49.32
2023-05-15T03:01:43.582Z,48.81
2023-05-15T03:02:43.574Z,49.22
2023-05-15T03:03:43.498Z,48.19
2023-05-15T03:04:43.657Z,48.40
2023-05-15T03:05:43.486Z,47.71
2023-05-15T03:06:43.466Z,47.19
2023-05-15T03:07:43.469Z,47.50
2023-05-15T03:08:43.431Z,46.27
2023-05-15T03:09:43.439Z,47.48
2023-05-15T03:10:43.434Z,48.09
2023-05-15T03:11:43.394Z,47.89
2023-05-15T03:12:43.384Z,48.19
2023-05-15T03:13:43.405Z,48.91
2023-05-15T03:14:43.345Z,49.01
2023-05-15T03:15:43.349Z,49.11
2023-05-15T03:16:43.396Z,48.60
2023-05-15T03:17:43.465Z,49.32
2023-05-15T03:18:43.327Z,48.71
2023-05-15T03:19:43.294Z,48.91
2023-05-15T03:20:43.288Z,49.73
2023-05-15T03:21:43.264Z,50.14
2023-05-15T03:22:43.264Z,50.04
2023-05-15T03:23:43.240Z,50.55
2023-05-15T03:24:43.219Z,51.06
2023-05-15T03:25:43.205Z,50.75
2023-05-15T03:26:43.233Z,51.37
2023-05-15T03:27:43.167Z,51.57
2023-05-15T03:28:43.148Z,51.37
2023-05-15T03:29:43.169Z,51.67
2023-05-15T03:30:43.143Z,52.49
2023-05-15T03:31:42.707Z,51.98
2023-05-15T03:32:43.172Z,51.26
2023-05-15T03:33:43.102Z,51.37
2023-05-15T03:34:43.087Z,51.26
2023-05-15T03:35:43.093Z,50.65
2023-05-15T03:36:43.059Z,50.45
2023-05-15T03:37:42.121Z,50.14
2023-05-15T03:38:42.075Z,49.52
2023-05-15T03:39:43.030Z,50.04
2023-05-15T03:40:43.007Z,50.22
2023-05-15T03:41:42.987Z,49.83
2023-05-15T03:42:42.969Z,50.63
2023-05-15T03:43:42.966Z,49.42
2023-05-15T03:44:42.949Z,49.22
2023-05-15T03:45:42.931Z,48.09
2023-05-15T03:46:42.934Z,48.81
2023-05-15T03:47:43.025Z,49.42
2023-05-15T03:48:42.903Z,49.63
2023-05-15T03:49:42.896Z,49.52
2023-05-15T03:50:42.875Z,49.73
2023-05-15T03:51:42.844Z,50.73
2023-05-15T03:52:42.851Z,50.42
2023-05-15T03:53:42.818Z,50.52
2023-05-15T03:54:42.814Z,50.63
2023-05-15T03:55:42.832Z,51.04
2023-05-15T03:56:42.781Z,49.81
2023-05-15T03:57:42.762Z,49.19
2023-05-15T03:58:42.762Z,49.81
2023-05-15T03:59:42.746Z,49.81
2023-05-15T04:00:42.732Z,50.42
2023-05-15T04:01:59.468Z,51.24
2023-05-15T04:02:43.755Z,51.34
2023-05-15T04:03:42.721Z,51.45
2023-05-15T04:04:42.689Z,51.65
2023-05-15T04:05:42.706Z,52.26
2023-05-15T04:06:42.646Z,53.90
2023-05-15T04:07:42.621Z,53.80
2023-05-15T04:08:42.620Z,53.69
2023-05-15T04:09:42.617Z,54.00
2023-05-15T04:10:42.584Z,53.39
2023-05-15T04:11:42.599Z,54.31
2023-05-15T04:12:42.557Z,55.33
2023-05-15T04:13:42.567Z,55.30
2023-05-15T04:14:42.544Z,55.21
2023-05-15T04:15:42.519Z,55.41
2023-05-15T04:16:42.646Z,56.02
2023-05-15T04:17:42.533Z,56.84
2023-05-15T04:18:42.528Z,55.51
2023-05-15T04:19:43.127Z,55.10
2023-05-15T04:20:42.449Z,55.92
2023-05-15T04:21:42.453Z,56.53
2023-05-15T04:22:42.432Z,57.04
2023-05-15T04:23:42.435Z,57.25
2023-05-15T04:24:41.431Z,57.97
2023-05-15T04:25:41.424Z,58.89
2023-05-15T04:26:42.461Z,58.07
2023-05-15T04:27:42.374Z,56.43
2023-05-15T04:28:52.492Z,56.94
2023-05-15T04:29:43.337Z,54.59
2023-05-15T04:30:42.318Z,55.92
2023-05-15T04:31:42.332Z,56.84
2023-05-15T04:32:42.355Z,56.23
2023-05-15T04:33:42.283Z,57.15
2023-05-15T04:34:42.256Z,56.74
2023-05-15T04:35:42.279Z,55.71
2023-05-15T04:36:42.956Z,56.74
2023-05-15T04:37:42.232Z,57.32
2023-05-15T04:38:42.217Z,59.27
2023-05-15T04:39:42.184Z,60.28
2023-05-15T04:40:42.162Z,60.49
2023-05-15T04:41:42.174Z,59.88
2023-05-15T04:42:42.153Z,58.14
2023-05-15T04:43:42.138Z,56.71
2023-05-15T04:44:42.124Z,56.10
2023-05-15T04:45:42.138Z,56.99
2023-05-15T04:46:42.110Z,56.58
2023-05-15T04:47:42.169Z,60.05
2023-05-15T04:48:42.069Z,60.05
2023-05-15T04:49:41.563Z,61.18
2023-05-15T04:50:42.028Z,61.18
2023-05-15T04:51:42.045Z,61.46
2023-05-15T04:52:42.030Z,62.07
2023-05-15T04:53:41.998Z,63.19
2023-05-15T04:54:41.976Z,64.01
2023-05-15T04:55:41.971Z,65.44
2023-05-15T04:56:41.966Z,66.46
2023-05-15T04:57:41.959Z,67.48
2023-05-15T04:58:41.929Z,68.80
2023-05-15T04:59:41.954Z,66.86
2023-05-15T05:00:41.907Z,66.86
2023-05-15T05:01:42.008Z,67.38
2023-05-15T05:02:41.948Z,67.07
2023-05-15T05:03:41.897Z,69.11
2023-05-15T05:04:41.834Z,68.50
2023-05-15T05:05:41.853Z,68.30
2023-05-15T05:06:41.832Z,69.49
2023-05-15T05:07:41.838Z,69.69
2023-05-15T05:08:41.798Z,70.81
2023-05-15T05:09:41.781Z,71.84
2023-05-15T05:10:41.811Z,70.00
2023-05-15T05:11:41.769Z,70.81
2023-05-15T05:12:41.736Z,72.21
2023-05-15T05:13:41.733Z,79.95
2023-05-15T05:14:41.723Z,85.03
2023-05-15T05:15:41.766Z,88.85
2023-05-15T05:16:41.680Z,93.03
2023-05-15T05:17:41.742Z,96.90
2023-05-15T05:18:41.684Z,99.99
2023-05-15T05:19:41.675Z,99.99
2023-05-15T05:20:41.650Z,99.99
2023-05-15T05:21:41.655Z,99.99
2023-05-15T05:22:41.607Z,99.99
2023-05-15T05:23:41.603Z,98.56
2023-05-15T05:24:41.634Z,99.99
2023-05-15T05:25:41.554Z,99.99
2023-05-15T05:26:41.549Z,99.99
2023-05-15T05:27:41.528Z,99.99
2023-05-15T05:28:41.524Z,99.99
2023-05-15T05:29:41.505Z,99.89
2023-05-15T05:30:41.489Z,97.44
2023-05-15T05:31:41.570Z,95.97
2023-05-15T05:32:41.554Z,93.83
2023-05-15T05:33:41.461Z,91.48
2023-05-15T05:34:41.445Z,90.25
2023-05-15T05:35:41.427Z,87.35
2023-05-15T05:36:40.191Z,86.53
2023-05-15T05:37:41.672Z,86.43
2023-05-15T05:38:41.396Z,85.31
2023-05-15T05:39:41.399Z,83.51
2023-05-15T05:40:41.357Z,83.31
2023-05-15T05:41:41.348Z,82.50
2023-05-15T05:42:41.318Z,82.90
2023-05-15T05:43:41.325Z,82.80
2023-05-15T05:44:41.308Z,82.90
2023-05-15T05:45:41.280Z,84.43
2023-05-15T05:46:41.315Z,84.12
2023-05-15T05:47:41.302Z,84.70
2023-05-15T05:48:41.253Z,84.43
2023-05-15T05:49:41.227Z,86.37
2023-05-15T05:50:41.226Z,85.45
2023-05-15T05:51:41.215Z,86.13
2023-05-15T05:52:41.199Z,83.89
2023-05-15T05:53:41.182Z,83.07
2023-05-15T05:54:41.167Z,85.00
2023-05-15T05:55:41.146Z,84.09
2023-05-15T05:56:41.125Z,86.33
2023-05-15T05:57:41.126Z,89.38
2023-05-15T05:58:41.117Z,85.78
2023-05-15T05:59:41.089Z,84.97
2023-05-15T06:00:41.079Z,86.69
2023-05-15T06:01:41.103Z,84.76
2023-05-15T06:02:41.245Z,86.35
2023-05-15T06:03:41.085Z,90.11
2023-05-15T06:04:41.027Z,92.04
2023-05-15T06:05:41.018Z,90.52
2023-05-15T06:06:40.994Z,90.92
2023-05-15T06:07:41.005Z,90.37
2023-05-15T06:08:40.952Z,94.74
2023-05-15T06:09:40.963Z,95.56
2023-05-15T06:10:40.932Z,95.86
2023-05-15T06:11:40.943Z,95.97
2023-05-15T06:12:40.930Z,95.15
2023-05-15T06:13:40.919Z,96.02
2023-05-15T06:14:40.876Z,95.67
2023-05-15T06:15:40.870Z,94.86
2023-05-15T06:16:40.886Z,94.82
2023-05-15T06:17:40.886Z,95.94
2023-05-15T06:18:40.877Z,95.12
2023-05-15T06:19:40.821Z,95.99
2023-05-15T06:20:40.804Z,96.80
2023-05-15T06:21:40.794Z,97.87
2023-05-15T06:22:40.774Z,99.99
2023-05-15T06:23:40.751Z,99.99
2023-05-15T06:24:40.731Z,99.99
2023-05-15T06:25:40.913Z,92.55
2023-05-15T06:26:40.729Z,75.15
2023-05-15T06:27:40.798Z,67.05
2023-05-15T06:28:40.689Z,64.21
2023-05-15T06:29:40.675Z,62.51
2023-05-15T06:30:40.721Z,60.64
2023-05-15T06:31:40.680Z,60.03
2023-05-15T06:32:40.645Z,59.58
2023-05-15T06:33:40.615Z,58.19
2023-05-15T06:34:40.600Z,56.41
2023-05-15T06:35:40.610Z,54.57
2023-05-15T06:36:40.585Z,53.91
2023-05-15T06:37:40.575Z,53.27
2023-05-15T06:38:40.579Z,52.32
2023-05-15T06:39:40.549Z,51.20
2023-05-15T06:40:40.551Z,51.89
2023-05-15T06:41:40.534Z,51.30
2023-05-15T06:42:40.524Z,50.60
2023-05-15T06:43:40.498Z,50.08
2023-05-15T06:44:40.495Z,49.66
2023-05-15T06:45:40.475Z,49.26
2023-05-15T06:46:40.470Z,49.46
2023-05-15T06:47:40.526Z,48.96
2023-05-15T06:48:40.500Z,49.66
2023-05-15T06:49:40.428Z,48.96
2023-05-15T06:50:40.407Z,49.66
2023-05-15T06:51:40.378Z,51.05
2023-05-15T06:52:40.369Z,53.74
2023-05-15T06:53:40.346Z,54.71
2023-05-15T06:54:40.349Z,55.49
2023-05-15T06:55:40.344Z,59.23
2023-05-15T06:56:40.304Z,59.64
2023-05-15T06:57:40.296Z,57.17
2023-05-15T06:58:40.335Z,53.49
2023-05-15T06:59:40.300Z,51.72
2023-05-15T07:00:40.253Z,52.49
2023-05-15T07:01:40.316Z,49.46
2023-05-15T07:02:40.301Z,50.90
2023-05-15T07:03:40.238Z,48.84
2023-05-15T07:04:40.269Z,48.10
2023-05-15T07:05:40.195Z,47.50
2023-05-15T07:06:40.186Z,47.09
2023-05-15T07:07:40.182Z,46.30
2023-05-15T07:08:40.153Z,46.86
2023-05-15T07:09:40.147Z,46.12
2023-05-15T07:10:40.122Z,45.75
2023-05-15T07:11:40.120Z,47.03
2023-05-15T07:12:40.103Z,48.71
2023-05-15T07:13:40.094Z,51.27
2023-05-15T07:14:40.074Z,54.04
2023-05-15T07:15:40.155Z,54.89
2023-05-15T07:16:40.094Z,54.22
2023-05-15T07:17:40.087Z,54.44
2023-05-15T07:18:40.157Z,54.91
2023-05-15T07:19:40.019Z,53.61
2023-05-15T07:20:40.057Z,53.89
2023-05-15T07:21:39.970Z,53.36
2023-05-15T07:22:51.944Z,51.87
2023-05-15T07:23:40.954Z,51.07
2023-05-15T07:24:40.694Z,47.80
2023-05-15T07:25:40.019Z,46.64
2023-05-15T07:26:50.362Z,48.56
2023-05-15T07:27:40.894Z,47.97
2023-05-15T07:28:39.893Z,46.61
2023-05-15T07:29:39.888Z,46.44
2023-05-15T07:30:39.934Z,46.73
2023-05-15T07:31:39.892Z,47.46
2023-05-15T07:32:39.872Z,46.03
2023-05-15T07:33:39.836Z,45.53
2023-05-15T07:34:39.821Z,43.10
2023-05-15T07:35:39.793Z,42.85
2023-05-15T07:36:39.793Z,40.84
2023-05-15T07:37:39.765Z,40.25
2023-05-15T07:38:39.764Z,39.76
2023-05-15T07:39:39.884Z,41.69
2023-05-15T07:40:39.745Z,40.76
2023-05-15T07:41:39.749Z,43.79
2023-05-15T07:42:39.749Z,42.11
2023-05-15T07:43:39.714Z,41.38
2023-05-15T07:44:39.670Z,40.43
2023-05-15T07:45:39.751Z,39.84
2023-05-15T07:46:39.702Z,39.12
2023-05-15T07:47:39.644Z,39.23
2023-05-15T07:48:39.613Z,39.97
2023-05-15T07:49:39.606Z,40.48
2023-05-15T07:50:39.587Z,42.31
2023-05-15T07:51:39.576Z,42.13
2023-05-15T07:52:39.581Z,40.74
2023-05-15T07:53:39.566Z,40.90
2023-05-15T07:54:39.580Z,39.36
2023-05-15T07:55:39.532Z,39.04
2023-05-15T07:56:39.535Z,38.34
2023-05-15T07:57:39.540Z,37.81
2023-05-15T07:58:38.329Z,36.53
2023-05-15T07:59:39.468Z,36.82
2023-05-15T08:00:39.459Z,39.42
2023-05-15T08:01:39.464Z,38.24
2023-05-15T08:02:39.491Z,37.55
2023-05-15T08:03:39.655Z,37.45
2023-05-15T08:04:39.532Z,38.10
2023-05-15T08:05:39.394Z,38.28
2023-05-15T08:06:39.391Z,36.30
2023-05-15T08:07:39.399Z,37.40
2023-05-15T08:08:39.355Z,36.74
2023-05-15T08:09:39.358Z,37.55
2023-05-15T08:10:39.342Z,36.92
2023-05-15T08:11:39.335Z,36.51
2023-05-15T08:12:39.312Z,37.48
2023-05-15T08:13:39.292Z,36.40
2023-05-15T08:14:37.982Z,36.61
2023-05-15T08:15:39.311Z,37.03
2023-05-15T08:16:39.268Z,40.37
2023-05-15T08:17:39.266Z,41.47
2023-05-15T08:18:38.320Z,41.75
2023-05-15T08:19:39.247Z,38.94
2023-05-15T08:20:39.228Z,40.26
2023-05-15T08:21:39.197Z,41.97
2023-05-15T08:22:39.190Z,40.98
2023-05-15T08:23:39.166Z,43.38
2023-05-15T08:24:39.168Z,40.31
2023-05-15T08:25:39.160Z,38.82
2023-05-15T08:26:39.135Z,40.21
2023-05-15T08:27:39.123Z,40.37
2023-05-15T08:28:39.124Z,40.72
2023-05-15T08:29:39.486Z,38.20
2023-05-15T08:30:39.073Z,38.18
2023-05-15T08:31:39.118Z,36.88
2023-05-15T08:32:39.131Z,37.16
2023-05-15T08:33:39.044Z,36.10
2023-05-15T08:34:39.139Z,37.49
2023-05-15T08:35:39.051Z,38.95
2023-05-15T08:36:39.679Z,38.79
2023-05-15T08:37:38.996Z,39.85
2023-05-15T08:38:38.967Z,40.37
2023-05-15T08:39:38.984Z,40.31
2023-05-15T08:40:40.142Z,40.41
2023-05-15T08:41:40.851Z,40.55
2023-05-15T08:42:38.936Z,41.06
2023-05-15T08:43:38.931Z,41.06
2023-05-15T08:44:38.935Z,41.18
2023-05-15T08:45:38.885Z,40.69
2023-05-15T08:46:38.907Z,38.71
2023-05-15T08:47:38.923Z,41.53
2023-05-15T08:48:39.018Z,43.84
2023-05-15T08:49:38.843Z,41.43
2023-05-15T08:50:38.835Z,38.14
2023-05-15T08:51:38.816Z,37.41
2023-05-15T08:52:38.808Z,37.36
2023-05-15T08:53:38.817Z,37.85
2023-05-15T08:54:38.788Z,36.05
2023-05-15T08:55:38.773Z,37.52
2023-05-15T08:56:38.758Z,39.07
2023-05-15T08:57:38.739Z,37.82
2023-05-15T08:58:38.744Z,37.73
2023-05-15T08:59:38.748Z,40.39
2023-05-15T09:00:38.702Z,46.26
2023-05-15T09:01:38.785Z,45.12
2023-05-15T09:02:38.766Z,44.89
2023-05-15T09:03:38.856Z,43.84
2023-05-15T09:04:38.656Z,42.74
2023-05-15T09:05:40.083Z,43.04
2023-05-15T09:06:38.646Z,43.64
2023-05-15T09:07:38.635Z,42.17
2023-05-15T09:08:37.678Z,40.58
2023-05-15T09:09:38.605Z,42.13
2023-05-15T09:10:38.570Z,39.79
2023-05-15T09:11:38.557Z,41.36
2023-05-15T09:12:38.556Z,41.79
2023-05-15T09:13:38.526Z,43.28
2023-05-15T09:14:38.534Z,47.07
2023-05-15T09:15:38.504Z,48.10
2023-05-15T09:16:38.591Z,50.72
2023-05-15T09:17:38.498Z,53.00
2023-05-15T09:18:38.513Z,53.30
2023-05-15T09:19:38.461Z,54.27
2023-05-15T09:20:38.486Z,54.24
2023-05-15T09:21:38.446Z,53.32
2023-05-15T09:22:38.435Z,53.05
2023-05-15T09:23:38.406Z,53.05
2023-05-15T09:24:38.394Z,52.64
2023-05-15T09:25:38.421Z,52.34
2023-05-15T09:26:38.382Z,52.87
2023-05-15T09:27:38.349Z,55.77
2023-05-15T09:28:38.333Z,54.94
2023-05-15T09:29:38.327Z,54.55
2023-05-15T09:30:38.312Z,52.34
2023-05-15T09:31:38.395Z,53.44
2023-05-15T09:32:38.314Z,53.34
2023-05-15T09:33:38.283Z,55.40
2023-05-15T09:34:38.256Z,60.19
2023-05-15T09:35:38.253Z,61.36
2023-05-15T09:36:38.248Z,59.86
2023-05-15T09:37:38.213Z,59.26
2023-05-15T09:38:38.232Z,60.19
2023-05-15T09:39:38.197Z,59.39
2023-05-15T09:40:38.238Z,59.59
2023-05-15T09:41:38.172Z,59.79
2023-05-15T09:42:38.161Z,59.46
2023-05-15T09:43:38.133Z,58.39
2023-05-15T09:44:38.129Z,59.96
2023-05-15T09:45:38.127Z,58.96
2023-05-15T09:46:38.149Z,58.94
2023-05-15T09:47:38.234Z,57.63
2023-05-15T09:48:38.175Z,58.40
2023-05-15T09:49:38.061Z,57.80
2023-05-15T09:50:38.058Z,56.50
2023-05-15T09:51:38.040Z,56.27
2023-05-15T09:52:38.012Z,52.80
2023-05-15T09:53:38.003Z,54.22
2023-05-15T09:54:37.983Z,54.12
2023-05-15T09:55:37.978Z,54.02
2023-05-15T09:56:37.966Z,54.10
2023-05-15T09:57:37.993Z,53.19
2023-05-15T09:58:37.929Z,51.87
2023-05-15T09:59:37.913Z,47.25
2023-05-15T10:00:48.174Z,46.53
2023-05-15T10:01:38.922Z,47.27
2023-05-15T10:02:37.921Z,47.19
2023-05-15T10:03:37.859Z,50.82
2023-05-15T10:04:37.868Z,51.57
2023-05-15T10:05:43.541Z,54.54
2023-05-15T10:06:40.647Z,59.50
2023-05-15T10:07:37.828Z,91.27
2023-05-15T10:08:37.804Z,98.02
2023-05-15T10:09:37.789Z,97.85
2023-05-15T10:10:37.780Z,92.67
2023-05-15T10:11:37.768Z,81.24
2023-05-15T10:12:37.967Z,76.03
2023-05-15T10:13:37.741Z,68.45
2023-05-15T10:14:37.745Z,67.97
2023-05-15T10:15:37.720Z,71.80
2023-05-15T10:16:37.767Z,59.01
2023-05-15T10:17:36.526Z,57.72
2023-05-15T10:18:37.721Z,46.42
2023-05-15T10:19:47.033Z,44.89
2023-05-15T10:20:38.627Z,65.49
2023-05-15T10:21:37.607Z,51.41
2023-05-15T10:22:37.603Z,44.08
2023-05-15T10:23:37.655Z,43.47
2023-05-15T10:24:37.588Z,39.89
2023-05-15T10:25:37.555Z,38.76
2023-05-15T10:26:37.548Z,37.14
2023-05-15T10:27:37.549Z,35.60
2023-05-15T10:28:37.550Z,35.70
2023-05-15T10:29:37.513Z,33.36
2023-05-15T10:30:37.505Z,33.85
2023-05-15T10:31:37.497Z,38.43
2023-05-15T10:32:37.566Z,37.30
2023-05-15T10:33:37.468Z,34.77
2023-05-15T10:34:36.597Z,31.40
2023-05-15T10:35:37.430Z,39.83
2023-05-15T10:36:37.970Z,43.18
2023-05-15T10:37:37.419Z,35.26
2023-05-15T10:38:36.196Z,37.29
2023-05-15T10:39:36.399Z,38.70
2023-05-15T10:40:37.400Z,37.68
2023-05-15T10:41:37.363Z,37.27
2023-05-15T10:42:37.367Z,43.75
2023-05-15T10:43:37.332Z,46.21
2023-05-15T10:44:35.915Z,50.48
2023-05-15T10:45:37.325Z,38.79
2023-05-15T10:46:37.343Z,36.97
2023-05-15T10:47:37.323Z,35.04
2023-05-15T10:48:37.267Z,39.08
2023-05-15T10:49:37.269Z,42.13
2023-05-15T10:50:36.718Z,42.13
2023-05-15T10:51:37.224Z,43.85
2023-05-15T10:52:37.239Z,46.09
2023-05-15T10:53:37.196Z,48.34
2023-05-15T10:54:37.165Z,60.36
2023-05-15T10:55:37.158Z,53.34
2023-05-15T10:56:37.184Z,50.70
2023-05-15T10:57:37.137Z,45.44
2023-05-15T10:58:37.116Z,37.93
2023-05-15T10:59:37.105Z,34.46
2023-05-15T11:00:37.082Z,36.49
2023-05-15T11:01:37.173Z,33.14
2023-05-15T11:02:37.093Z,30.09
2023-05-15T11:03:47.905Z,31.31
2023-05-15T11:04:38.086Z,36.47
2023-05-15T11:05:37.014Z,39.62
2023-05-15T11:06:37.021Z,40.03
2023-05-15T11:07:37.002Z,38.79
2023-05-15T11:08:36.993Z,45.48
2023-05-15T11:09:36.963Z,54.44
2023-05-15T11:10:36.972Z,50.27
2023-05-15T11:11:36.966Z,47.33
2023-05-15T11:12:36.928Z,45.48
2023-05-15T11:13:36.919Z,40.38
2023-05-15T11:14:36.896Z,36.22
2023-05-15T11:15:36.906Z,42.29
2023-05-15T11:16:36.916Z,44.73
2023-05-15T11:17:36.914Z,41.56
2023-05-15T11:18:36.874Z,39.21
2023-05-15T11:19:36.836Z,44.15
2023-05-15T11:20:37.281Z,48.11
2023-05-15T11:21:36.788Z,60.69
2023-05-15T11:22:36.778Z,54.13
2023-05-15T11:23:36.780Z,48.54
2023-05-15T11:24:36.771Z,48.41
2023-05-15T11:25:36.760Z,63.30
2023-05-15T11:26:35.794Z,62.69
2023-05-15T11:27:36.717Z,66.03
2023-05-15T11:28:36.236Z,67.05
2023-05-15T11:29:36.689Z,65.09
2023-05-15T11:30:36.688Z,70.36
2023-05-15T11:31:36.703Z,63.67
2023-05-15T11:32:36.688Z,67.93
2023-05-15T11:33:36.638Z,71.70
2023-05-15T11:34:36.641Z,64.58
2023-05-15T11:35:35.732Z,66.38
2023-05-15T11:36:37.708Z,60.68
2023-05-15T11:37:36.570Z,69.07
2023-05-15T11:38:36.562Z,71.91
2023-05-15T11:39:36.562Z,66.72
2023-05-15T11:40:36.530Z,79.55
2023-05-15T11:41:36.524Z,78.34
2023-05-15T11:42:36.521Z,82.93
2023-05-15T11:43:36.547Z,85.30
2023-05-15T11:44:36.501Z,76.83
2023-05-15T11:45:36.480Z,73.86
2023-05-15T11:46:36.534Z,75.34
2023-05-15T11:47:36.469Z,67.52
2023-05-15T11:48:36.441Z,72.48
2023-05-15T11:49:36.414Z,70.62
2023-05-15T11:50:36.410Z,76.28
2023-05-15T11:51:36.389Z,78.88
2023-05-15T11:52:36.365Z,68.84
2023-05-15T11:53:36.366Z,71.84
2023-05-15T11:54:36.350Z,75.27
2023-05-15T11:55:36.342Z,74.93
2023-05-15T11:56:34.997Z,78.41
2023-05-15T11:57:36.327Z,76.45
2023-05-15T11:58:36.314Z,61.47
2023-05-15T11:59:36.270Z,73.55
2023-05-15T12:00:36.260Z,76.58
2023-05-15T12:01:36.246Z,82.27
2023-05-15T12:02:36.315Z,74.56
2023-05-15T12:03:36.557Z,74.83
2023-05-15T12:04:36.234Z,76.40
2023-05-15T12:05:36.428Z,82.01
2023-05-15T12:06:36.191Z,88.56
2023-05-15T12:07:36.177Z,85.08
2023-05-15T12:08:36.156Z,80.94
2023-05-15T12:09:36.140Z,97.78
2023-05-15T12:10:36.127Z,83.42
2023-05-15T12:11:36.122Z,90.37
2023-05-15T12:12:36.109Z,85.96
2023-05-15T12:13:36.097Z,99.05
2023-05-15T12:14:36.076Z,87.17
2023-05-15T12:15:36.066Z,97.53
2023-05-15T12:16:36.065Z,94.96
2023-05-15T12:17:36.150Z,90.34
2023-05-15T12:18:36.028Z,96.69
2023-05-15T12:19:36.004Z,92.46
2023-05-15T12:20:36.002Z,95.33
2023-05-15T12:21:37.766Z,92.88
2023-05-15T12:22:35.971Z,93.38
2023-05-15T12:23:35.947Z,99.99
2023-05-15T12:24:35.931Z,99.26
2023-05-15T12:25:35.933Z,96.98
2023-05-15T12:26:36.108Z,94.13
2023-05-15T12:27:35.901Z,98.05
2023-05-15T12:28:35.869Z,96.19
2023-05-15T12:29:35.853Z,94.98
2023-05-15T12:30:35.884Z,93.08
2023-05-15T12:31:36.019Z,96.95
2023-05-15T12:32:35.833Z,97.35
2023-05-15T12:33:35.829Z,99.61
2023-05-15T12:34:35.812Z,96.14
2023-05-15T12:35:35.805Z,93.46
2023-05-15T12:36:35.798Z,95.43
2023-05-15T12:37:35.751Z,98.60
2023-05-15T12:38:35.336Z,96.80
2023-05-15T12:39:35.727Z,99.77
2023-05-15T12:40:35.728Z,99.77
2023-05-15T12:41:35.714Z,98.52
2023-05-15T12:42:35.696Z,99.99
2023-05-15T12:43:35.682Z,99.99
2023-05-15T12:44:35.664Z,97.78
2023-05-15T12:45:35.667Z,97.44
2023-05-15T12:46:35.722Z,99.99
2023-05-15T12:47:35.635Z,85.43
2023-05-15T12:48:35.604Z,96.47
2023-05-15T12:49:35.619Z,97.78
2023-05-15T12:50:35.604Z,96.21
2023-05-15T12:51:35.580Z,98.62
2023-05-15T12:52:35.552Z,99.72